Time;durP1;ratioP1;P1;durP2;ratioP2;P2;SDS_P1;SDS_P2;PMS_P1;PMS_P2;Temp;Humidity;BMP_temperature;BMP_pressure;BME280_temperature;BME280_humidity;BME280_pressure;Samples;Min_cycle;Max_cycle;Signal;HPM_P1;HPM_P2
2022/09/19 00:01:42;;;;;;;3.15;0.95;;;9.50;99.90;;;;;;6190575;23;20008;-80
2022/09/19 00:04:15;;;;;;;1.17;0.60;;;9.50;99.90;;;;;;6230262;22;20026;-81
2022/09/19 00:06:42;;;;;;;2.05;0.70;;;9.40;99.90;;;;;;6240905;22;19988;-81
2022/09/19 00:09:10;;;;;;;2.80;0.80;;;9.40;99.90;;;;;;6240949;22;19997;-81
2022/09/19 00:11:41;;;;;;;1.65;0.75;;;9.30;99.90;;;;;;6240664;22;19989;-81
2022/09/19 00:14:09;;;;;;;1.03;0.60;;;9.40;99.90;;;;;;6240700;22;20410;-81
2022/09/19 00:16:38;;;;;;;2.47;0.95;;;9.40;99.90;;;;;;6240370;22;20040;-81
2022/09/19 00:19:07;;;;;;;3.30;0.93;;;9.30;99.90;;;;;;6211994;23;20016;-80
2022/09/19 00:21:36;;;;;;;2.83;0.80;;;9.30;99.90;;;;;;6190872;23;20012;-80
2022/09/19 00:26:47;;;;;;;0.73;0.63;;;9.30;99.90;;;;;;6216099;23;20027;-80
2022/09/19 00:29:15;;;;;;;1.02;0.60;;;9.40;99.90;;;;;;6190836;23;20011;-80
2022/09/19 00:31:41;;;;;;;3.60;0.82;;;9.40;99.90;;;;;;6216497;23;20001;-78
2022/09/19 00:34:08;;;;;;;3.17;0.70;;;9.40;99.90;;;;;;6216196;23;20004;-78
2022/09/19 00:36:38;;;;;;;1.00;0.90;;;9.40;99.90;;;;;;6188952;23;20009;-78
2022/09/19 00:39:05;;;;;;;4.55;2.15;;;9.30;99.90;;;;;;6215835;23;20055;-78
2022/09/19 00:41:32;;;;;;;3.30;0.90;;;9.30;99.90;;;;;;6188036;23;20016;-80
2022/09/19 00:44:17;;;;;;;3.38;0.93;;;9.20;99.90;;;;;;6215766;23;20008;-79
2022/09/19 00:46:43;;;;;;;1.58;1.20;;;9.20;99.90;;;;;;6188033;23;20466;-78
2022/09/19 00:49:13;;;;;;;3.20;1.13;;;9.10;99.90;;;;;;6215595;23;19996;-79
2022/09/19 00:51:45;;;;;;;1.77;0.82;;;9.10;99.90;;;;;;6218735;23;20001;-79
2022/09/19 00:54:33;;;;;;;2.65;0.95;;;9.00;99.90;;;;;;6217240;23;20019;-79
2022/09/19 00:57:01;;;;;;;1.80;0.90;;;8.90;99.90;;;;;;6222655;23;20000;-79
2022/09/19 00:59:31;;;;;;;1.42;0.85;;;8.90;99.90;;;;;;6218892;23;20028;-79
2022/09/19 01:01:57;;;;;;;2.28;0.95;;;8.90;99.90;;;;;;6191475;23;20005;-78
2022/09/19 01:04:28;;;;;;;1.73;0.75;;;8.80;99.90;;;;;;6217934;23;20083;-82
2022/09/19 01:07:01;;;;;;;5.43;1.23;;;8.80;99.90;;;;;;6216257;23;20091;-79
2022/09/19 01:09:35;;;;;;;2.28;1.02;;;8.90;99.90;;;;;;6215744;23;20088;-79
2022/09/19 01:12:26;;;;;;;2.90;0.80;;;8.80;99.90;;;;;;6216600;23;20138;-78
2022/09/19 01:15:28;;;;;;;2.15;1.00;;;8.70;99.90;;;;;;6215313;23;20001;-79
2022/09/19 01:18:04;;;;;;;1.40;0.93;;;8.70;99.90;;;;;;6177346;23;20043;-79
2022/09/19 01:20:36;;;;;;;1.08;0.80;;;8.60;99.90;;;;;;6215632;23;20411;-80
2022/09/19 01:23:44;;;;;;;2.55;0.93;;;8.60;99.90;;;;;;6217077;23;20055;-80
2022/09/19 01:26:14;;;;;;;1.52;0.93;;;8.60;99.90;;;;;;6159705;23;20339;-79
2022/09/19 01:28:41;;;;;;;2.00;0.95;;;8.50;99.90;;;;;;6187955;23;20000;-78
2022/09/19 01:31:18;;;;;;;1.58;0.70;;;8.50;99.90;;;;;;6215169;23;20024;-80
2022/09/19 01:33:50;;;;;;;1.27;0.43;;;8.50;99.90;;;;;;6189107;23;20004;-78
2022/09/19 01:36:17;;;;;;;0.47;0.47;;;8.20;99.90;;;;;;6216130;23;20001;-79
2022/09/19 01:38:45;;;;;;;1.15;0.40;;;7.90;99.90;;;;;;6220180;23;20004;-80
2022/09/19 01:41:12;;;;;;;1.67;0.55;;;7.70;99.90;;;;;;6221726;23;20072;-80
2022/09/19 01:43:38;;;;;;;0.28;0.20;;;7.40;99.90;;;;;;6220143;23;20115;-79
2022/09/19 01:46:14;;;;;;;0.22;0.22;;;7.30;99.90;;;;;;6217648;23;20001;-79
2022/09/19 01:48:53;;;;;;;0.47;0.28;;;7.20;99.90;;;;;;6218593;23;20005;-80
2022/09/19 01:51:33;;;;;;;0.75;0.15;;;7.20;99.90;;;;;;6220815;23;20001;-79
2022/09/19 01:54:26;;;;;;;0.20;0.20;;;7.10;99.90;;;;;;6221051;23;20005;-80
2022/09/19 01:57:29;;;;;;;0.20;0.20;;;7.10;99.90;;;;;;6190920;23;20082;-80
2022/09/19 01:59:58;;;;;;;;;;;7.00;99.90;;;;;;6190478;23;20012;-80
2022/09/19 02:02:39;;;;;;;0.20;0.10;;;7.00;99.90;;;;;;6207336;23;19907;-80
2022/09/19 02:05:13;;;;;;;0.10;0.10;;;7.00;99.90;;;;;;6242308;22;19985;-81
2022/09/19 02:07:45;;;;;;;0.00;0.00;;;7.00;99.90;;;;;;6214767;23;20052;-80
2022/09/19 02:10:23;;;;;;;0.23;0.20;;;7.00;99.90;;;;;;6241182;22;19988;-80
2022/09/19 02:12:53;;;;;;;0.10;0.10;;;7.00;99.90;;;;;;6240276;22;20128;-80
2022/09/19 02:15:25;;;;;;;0.55;0.10;;;7.00;99.90;;;;;;6239512;23;20001;-79
2022/09/19 02:17:58;;;;;;;0.20;0.10;;;7.00;99.90;;;;;;6238936;23;20008;-80
2022/09/19 02:20:29;;;;;;;0.20;0.20;;;7.00;99.90;;;;;;6233648;23;20005;-80
2022/09/19 02:23:11;;;;;;;0.75;0.20;;;7.00;99.90;;;;;;6219374;23;20079;-79
2022/09/19 02:25:38;;;;;;;0.30;0.30;;;7.00;99.90;;;;;;6218942;23;20011;-80
2022/09/19 02:28:12;;;;;;;0.25;0.17;;;7.00;99.90;;;;;;6192583;23;20009;-80
2022/09/19 02:30:39;;;;;;;0.30;0.30;;;7.00;99.90;;;;;;6192472;23;20135;-80
2022/09/19 02:33:06;;;;;;;3.85;0.35;;;7.00;99.90;;;;;;6218547;23;19996;-80
2022/09/19 02:35:48;;;;;;;0.43;0.40;;;6.90;99.90;;;;;;6219749;23;20028;-81
2022/09/19 02:38:35;;;;;;;0.30;0.30;;;6.90;99.90;;;;;;6192235;23;20083;-79
2022/09/19 02:41:04;;;;;;;1.25;0.38;;;6.80;99.90;;;;;;6191848;23;20008;-79
2022/09/19 02:43:36;;;;;;;0.45;0.45;;;6.80;99.90;;;;;;6219322;23;20009;-80
2022/09/19 02:46:05;;;;;;;;;;;6.90;99.90;;;;;;6220370;23;20001;-80
2022/09/19 02:48:43;;;;;;;0.93;0.60;;;6.90;99.90;;;;;;6235966;23;19911;-80
2022/09/19 02:51:16;;;;;;;1.10;0.77;;;6.80;99.90;;;;;;6238931;23;20031;-78
2022/09/19 02:53:49;;;;;;;1.35;0.70;;;6.90;99.90;;;;;;6241078;22;20016;-81
2022/09/19 02:56:17;;;;;;;0.70;0.70;;;6.90;99.90;;;;;;6226317;23;20004;-81
2022/09/19 02:58:58;;;;;;;0.55;0.55;;;6.90;99.90;;;;;;6219909;23;20063;-80
2022/09/19 03:01:27;;;;;;;1.20;0.80;;;7.00;99.90;;;;;;6219303;23;20307;-80
2022/09/19 03:04:13;;;;;;;1.23;0.70;;;7.00;99.90;;;;;;6219299;23;20004;-81
2022/09/19 03:06:52;;;;;;;2.83;0.55;;;7.00;99.90;;;;;;6219253;23;20012;-80
2022/09/19 03:09:22;;;;;;;0.80;0.60;;;7.00;99.90;;;;;;6218966;23;20006;-80
2022/09/19 03:11:56;;;;;;;1.63;1.00;;;7.00;99.90;;;;;;6192308;23;20106;-80
2022/09/19 03:14:22;;;;;;;1.63;0.80;;;7.00;99.90;;;;;;6218786;23;20000;-81
2022/09/19 03:16:54;;;;;;;3.67;0.82;;;7.00;99.90;;;;;;6218358;23;19997;-81
2022/09/19 03:19:22;;;;;;;3.10;0.70;;;6.90;99.90;;;;;;6219602;23;20004;-80
2022/09/19 03:21:51;;;;;;;0.85;0.75;;;7.00;99.90;;;;;;6218892;23;20039;-80
2022/09/19 03:24:17;;;;;;;1.90;0.70;;;6.90;99.90;;;;;;6219035;23;20495;-81
2022/09/19 03:26:42;;;;;;;0.60;0.60;;;6.90;99.90;;;;;;6218491;23;20005;-78
2022/09/19 03:29:09;;;;;;;2.58;0.90;;;6.90;99.90;;;;;;6195499;23;20009;-80
2022/09/19 03:31:35;;;;;;;1.92;0.80;;;6.80;99.90;;;;;;6236040;23;20062;-80
2022/09/19 03:34:02;;;;;;;1.45;0.70;;;6.90;99.90;;;;;;6226622;23;19996;-80
2022/09/19 03:36:29;;;;;;;1.83;1.05;;;6.90;99.90;;;;;;6219095;23;19996;-80
2022/09/19 03:38:55;;;;;;;1.63;0.80;;;6.90;99.90;;;;;;6217613;23;20009;-79
2022/09/19 03:41:22;;;;;;;4.32;0.90;;;6.90;99.90;;;;;;6216862;23;20015;-79
2022/09/19 03:43:49;;;;;;;1.45;0.65;;;6.90;99.90;;;;;;6190692;23;20349;-79
2022/09/19 03:46:17;;;;;;;0.68;0.68;;;6.90;99.90;;;;;;6217350;23;20480;-80
2022/09/19 03:48:45;;;;;;;2.08;0.57;;;6.90;99.90;;;;;;6227749;23;20107;-80
2022/09/19 03:51:12;;;;;;;3.97;0.75;;;6.80;99.90;;;;;;6238855;23;20000;-79
2022/09/19 03:53:37;;;;;;;3.72;0.73;;;6.80;99.90;;;;;;6240943;23;19997;-80
2022/09/19 03:56:04;;;;;;;1.95;0.60;;;6.80;99.90;;;;;;6241488;22;20091;-79
2022/09/19 03:58:30;;;;;;;0.60;0.60;;;6.70;99.90;;;;;;6199303;23;20001;-78
2022/09/19 04:00:57;;;;;;;3.58;1.17;;;6.70;99.90;;;;;;6227887;23;20016;-79
2022/09/19 04:03:23;;;;;;;3.55;0.85;;;6.70;99.90;;;;;;6235355;23;20005;-79
2022/09/19 04:05:51;;;;;;;1.70;0.50;;;6.70;99.90;;;;;;6228305;23;20000;-78
2022/09/19 04:08:18;;;;;;;1.02;0.70;;;6.70;99.90;;;;;;6217311;23;20011;-79
2022/09/19 04:10:43;;;;;;;2.45;0.40;;;6.70;99.90;;;;;;6189489;23;20067;-80
2022/09/19 04:13:13;;;;;;;0.65;0.40;;;6.70;99.90;;;;;;6217158;23;20005;-80
2022/09/19 04:15:41;;;;;;;2.60;0.70;;;6.60;99.90;;;;;;6191047;23;20104;-79
2022/09/19 04:18:07;;;;;;;2.28;0.60;;;6.60;99.90;;;;;;6218306;23;20005;-81
2022/09/19 04:20:33;;;;;;;0.65;0.40;;;6.60;99.90;;;;;;6217976;23;20011;-78
2022/09/19 04:23:00;;;;;;;2.35;0.47;;;6.60;99.90;;;;;;6192168;23;20012;-81
2022/09/19 04:25:35;;;;;;;3.10;0.60;;;6.50;99.90;;;;;;6191226;23;20009;-80
2022/09/19 04:28:06;;;;;;;3.90;0.80;;;6.50;99.90;;;;;;6219639;23;20008;-80
2022/09/19 04:30:36;;;;;;;3.47;0.70;;;6.50;99.90;;;;;;6223798;23;20007;-79
2022/09/19 04:33:03;;;;;;;1.05;0.55;;;6.60;99.90;;;;;;6219812;23;20000;-80
2022/09/19 04:35:34;;;;;;;1.52;0.63;;;6.60;99.90;;;;;;6219604;23;20428;-79
2022/09/19 04:38:11;;;;;;;4.85;0.65;;;6.50;99.90;;;;;;6219834;23;20007;-80
2022/09/19 04:40:42;;;;;;;0.70;0.70;;;6.60;99.90;;;;;;6219988;23;20113;-80
2022/09/19 04:43:09;;;;;;;4.47;1.00;;;6.60;99.90;;;;;;6219984;23;20032;-80
2022/09/19 04:45:37;;;;;;;2.65;0.50;;;6.60;99.90;;;;;;6177231;23;20024;-82
2022/09/19 04:48:12;;;;;;;6.18;0.70;;;6.60;99.90;;;;;;6161610;23;19997;-83
2022/09/19 04:51:33;;;;;;;3.10;0.98;;;6.60;99.90;;;;;;6120053;23;20081;-83
2022/09/19 04:54:19;;;;;;;3.45;0.52;;;6.50;99.90;;;;;;6061375;23;20005;-83
2022/09/19 04:56:50;;;;;;;4.13;0.73;;;6.50;99.90;;;;;;6103039;23;20002;-83
2022/09/19 04:59:17;;;;;;;5.38;0.50;;;6.50;99.90;;;;;;6082725;23;20006;-84
2022/09/19 05:01:44;;;;;;;1.25;0.57;;;6.50;99.90;;;;;;6130641;23;20465;-83
2022/09/19 05:04:22;;;;;;;4.70;1.58;;;6.50;99.90;;;;;;6132159;23;20009;-83
2022/09/19 05:06:47;;;;;;;4.43;0.95;;;6.50;99.90;;;;;;6131490;23;20010;-84
2022/09/19 05:09:15;;;;;;;3.97;0.65;;;6.50;99.90;;;;;;6134831;23;20009;-82
2022/09/19 05:12:24;;;;;;;4.43;0.98;;;6.50;99.90;;;;;;6133050;23;20006;-82
2022/09/19 05:22:22;;;;;;;2.38;0.85;;;6.80;99.90;;;;;;6140691;23;20359;-82
2022/09/19 05:25:04;;;;;;;4.88;0.80;;;6.90;99.90;;;;;;6143306;23;20011;-83
2022/09/19 05:27:36;;;;;;;3.72;0.95;;;7.00;99.90;;;;;;6118189;23;20006;-82
2022/09/19 05:30:21;;;;;;;5.28;1.08;;;7.10;99.90;;;;;;6144716;23;20002;-84
2022/09/19 05:33:37;;;;;;;3.15;1.00;;;7.20;99.90;;;;;;6145527;23;20033;-83
2022/09/19 05:39:54;;;;;;;8.95;1.08;;;7.30;99.90;;;;;;6142607;23;20108;-82
2022/09/19 05:42:22;;;;;;;6.00;1.30;;;7.30;99.90;;;;;;6142924;23;20082;-83
2022/09/19 05:44:49;;;;;;;10.00;1.98;;;7.40;99.90;;;;;;6147645;23;20009;-84
2022/09/19 05:47:49;;;;;;;3.22;0.73;;;7.40;99.90;;;;;;6177262;23;20009;-82
2022/09/19 05:50:21;;;;;;;;;;;7.40;99.90;;;;;;6178990;23;20013;-82
2022/09/19 05:56:37;;;;;;;7.38;1.15;;;7.50;99.90;;;;;;6193548;23;20040;-83
2022/09/19 05:59:54;;;;;;;6.32;1.10;;;7.60;99.90;;;;;;6161450;23;20513;-84
2022/09/19 06:02:20;;;;;;;3.55;0.90;;;7.70;99.90;;;;;;6193718;23;20005;-84
2022/09/19 06:04:46;;;;;;;10.43;1.10;;;7.80;99.90;;;;;;6194058;23;20023;-85
2022/09/19 06:07:13;;;;;;;6.80;1.20;;;8.00;99.90;;;;;;6170278;23;20013;-83
2022/09/19 06:10:28;;;;;;;10.40;1.00;;;8.10;99.90;;;;;;6187159;23;20005;-84
2022/09/19 06:13:01;;;;;;;9.93;1.92;;;8.10;99.90;;;;;;6094803;23;20084;-85
2022/09/19 06:15:30;;;;;;;6.68;1.13;;;8.10;99.90;;;;;;6171985;23;20021;-82
2022/09/19 06:17:59;;;;;;;4.30;0.90;;;8.10;99.90;;;;;;6168273;23;20005;-84
2022/09/19 06:20:27;;;;;;;7.75;0.75;;;8.10;99.90;;;;;;6196877;23;19997;-84
2022/09/19 06:23:02;;;;;;;6.72;1.20;;;8.10;99.90;;;;;;6198910;23;20013;-83
2022/09/19 06:25:31;;;;;;;11.15;1.40;;;8.10;99.90;;;;;;6200237;23;19999;-83
2022/09/19 06:27:59;;;;;;;2.80;1.10;;;8.10;99.90;;;;;;6170442;23;20056;-84
2022/09/19 06:30:26;;;;;;;9.27;1.73;;;8.10;99.90;;;;;;6170430;23;20029;-83
2022/09/19 06:32:51;;;;;;;4.65;0.82;;;8.10;99.90;;;;;;6169818;23;20001;-83
2022/09/19 06:35:21;;;;;;;7.38;1.10;;;8.20;99.90;;;;;;6198483;23;20535;-83
2022/09/19 06:37:47;;;;;;;5.35;1.55;;;8.20;99.90;;;;;;6197084;23;20013;-83
2022/09/19 06:40:18;;;;;;;3.88;1.23;;;8.20;99.90;;;;;;6194808;23;20056;-83
2022/09/19 06:42:44;;;;;;;5.95;1.13;;;8.20;99.90;;;;;;6195875;23;20008;-83
2022/09/19 06:45:10;;;;;;;9.02;1.50;;;8.30;99.90;;;;;;6194893;23;20064;-84
2022/09/19 06:47:37;;;;;;;3.85;1.10;;;8.40;99.90;;;;;;6195484;23;20077;-84
2022/09/19 06:50:04;;;;;;;9.13;1.45;;;8.50;99.90;;;;;;6194985;23;20027;-84
2022/09/19 06:52:30;;;;;;;6.45;1.33;;;8.40;99.90;;;;;;6169411;23;20373;-85
2022/09/19 06:54:58;;;;;;;4.10;1.40;;;8.50;99.90;;;;;;6196620;23;19997;-85
2022/09/19 06:57:24;;;;;;;5.80;1.55;;;8.60;99.90;;;;;;6168790;23;20515;-85
2022/09/19 06:59:50;;;;;;;10.10;1.60;;;8.80;99.90;;;;;;6196045;23;19992;-83
2022/09/19 07:02:16;;;;;;;4.43;1.20;;;9.00;99.90;;;;;;6169584;23;20017;-83
2022/09/19 07:04:42;;;;;;;3.13;0.93;;;9.10;99.90;;;;;;6196165;23;20055;-84
2022/09/19 07:07:07;;;;;;;3.75;1.10;;;9.20;99.90;;;;;;6195820;23;20440;-83
2022/09/19 07:09:33;;;;;;;7.90;1.05;;;9.20;99.90;;;;;;6198228;23;20100;-83
2022/09/19 07:12:01;;;;;;;7.20;1.08;;;9.30;99.90;;;;;;6173220;23;20088;-82
2022/09/19 07:14:27;;;;;;;7.15;1.33;;;9.20;99.90;;;;;;6198688;23;19997;-86
2022/09/19 07:16:52;;;;;;;11.13;2.42;;;9.10;99.90;;;;;;6171292;23;20035;-83
2022/09/19 07:19:18;;;;;;;7.70;2.28;;;9.00;99.90;;;;;;6198605;23;20000;-82
2022/09/19 07:21:44;;;;;;;9.90;2.35;;;8.90;99.90;;;;;;6198039;23;20037;-83
2022/09/19 07:24:17;;;;;;;9.95;1.98;;;8.90;99.90;;;;;;6196974;23;19993;-83
2022/09/19 07:26:43;;;;;;;8.77;1.20;;;8.90;99.90;;;;;;6195863;23;20001;-84
2022/09/19 07:29:08;;;;;;;5.43;0.95;;;8.90;99.90;;;;;;6196190;23;20028;-82
2022/09/19 07:31:34;;;;;;;5.75;1.50;;;8.90;99.90;;;;;;6196893;23;20040;-83
2022/09/19 07:34:00;;;;;;;5.07;1.40;;;8.90;99.90;;;;;;6169049;23;20406;-82
2022/09/19 07:36:26;;;;;;;5.47;1.42;;;8.80;99.90;;;;;;6197111;23;20013;-84
2022/09/19 07:38:52;;;;;;;6.22;1.45;;;8.90;99.90;;;;;;6196688;23;20482;-84
2022/09/19 07:41:18;;;;;;;4.97;0.90;;;8.90;99.90;;;;;;6194243;23;20059;-83
2022/09/19 07:43:44;;;;;;;3.63;0.75;;;8.90;99.90;;;;;;6167587;23;20035;-83
2022/09/19 07:46:14;;;;;;;8.63;1.63;;;8.90;99.90;;;;;;6194697;23;20008;-83
2022/09/19 07:48:46;;;;;;;3.17;0.88;;;9.00;99.90;;;;;;6194386;23;20431;-81
2022/09/19 07:51:12;;;;;;;8.57;1.30;;;9.10;99.90;;;;;;6193959;23;20012;-81
2022/09/19 07:53:37;;;;;;;8.82;1.30;;;9.30;99.90;;;;;;6193057;23;20029;-83
2022/09/19 07:56:05;;;;;;;5.63;1.08;;;9.50;99.90;;;;;;6166783;23;20009;-83
2022/09/19 07:58:31;;;;;;;6.65;1.23;;;9.50;99.90;;;;;;6167964;23;20011;-82
2022/09/19 08:01:00;;;;;;;5.68;1.27;;;9.40;99.90;;;;;;6193798;23;20490;-83
2022/09/19 08:03:26;;;;;;;5.38;1.23;;;9.50;99.90;;;;;;6166421;23;20005;-82
2022/09/19 08:05:53;;;;;;;5.40;1.30;;;9.50;99.90;;;;;;6195897;23;20008;-83
2022/09/19 08:08:22;;;;;;;4.18;1.77;;;9.50;99.90;;;;;;6194837;23;20069;-81
2022/09/19 08:10:48;;;;;;;4.65;1.25;;;9.40;99.90;;;;;;6166478;23;20005;-83
2022/09/19 08:13:16;;;;;;;2.83;1.45;;;9.40;99.90;;;;;;6167484;23;20005;-82
2022/09/19 08:15:44;;;;;;;3.92;2.00;;;9.60;99.90;;;;;;6170681;23;20064;-82
2022/09/19 08:18:19;;;;;;;3.63;1.30;;;9.70;99.90;;;;;;6174695;23;20011;-81
2022/09/19 08:20:45;;;;;;;3.97;1.00;;;9.90;99.90;;;;;;6174367;23;20009;-83
2022/09/19 08:23:13;;;;;;;5.38;1.30;;;10.00;99.90;;;;;;6196056;23;20432;-83
2022/09/19 08:25:46;;;;;;;3.55;1.27;;;10.20;99.90;;;;;;6193770;23;20033;-83
2022/09/19 08:28:12;;;;;;;5.80;1.10;;;10.50;99.90;;;;;;6193036;23;20001;-83
2022/09/19 08:30:43;;;;;;;5.00;1.10;;;10.60;99.60;;;;;;6168621;23;20009;-83
2022/09/19 08:33:11;;;;;;;5.25;1.60;;;10.60;98.60;;;;;;6195015;23;20039;-82
2022/09/19 08:35:39;;;;;;;5.65;1.35;;;10.70;99.00;;;;;;6170611;23;20016;-84
2022/09/19 08:38:07;;;;;;;4.40;1.00;;;10.70;99.60;;;;;;6204327;23;20069;-82
2022/09/19 08:40:56;;;;;;;4.32;1.15;;;10.70;97.80;;;;;;6176928;23;20009;-84
2022/09/19 08:43:31;;;;;;;7.10;1.20;;;10.60;97.70;;;;;;6195690;23;19997;-83
2022/09/19 08:46:50;;;;;;;6.68;1.23;;;10.60;96.80;;;;;;6193310;23;20005;-85
2022/09/19 08:49:41;;;;;;;5.07;1.00;;;10.50;97.90;;;;;;6193772;23;20013;-84
2022/09/19 08:52:42;;;;;;;10.30;1.30;;;10.60;97.20;;;;;;6149689;23;20119;-84
2022/09/19 08:55:20;;;;;;;9.77;1.40;;;10.70;97.20;;;;;;6151843;23;20040;-84
2022/09/19 08:58:14;;;;;;;4.93;1.08;;;10.90;98.50;;;;;;6163766;23;20013;-85
2022/09/19 09:01:28;;;;;;;9.15;1.13;;;11.30;99.90;;;;;;6172812;23;20002;-88
2022/09/19 09:04:45;;;;;;;4.40;1.30;;;11.70;97.10;;;;;;6178374;23;20016;-84
2022/09/19 09:08:03;;;;;;;4.10;1.55;;;12.00;95.40;;;;;;6196694;23;20001;-85
2022/09/19 09:11:18;;;;;;;2.17;0.60;;;12.00;94.30;;;;;;6195297;23;20039;-83
2022/09/19 09:14:34;;;;;;;3.20;1.00;;;12.00;92.90;;;;;;6088696;23;20090;-84
2022/09/19 09:17:58;;;;;;;4.57;1.13;;;11.90;92.40;;;;;;6164820;23;20048;-84
2022/09/19 09:21:30;;;;;;;5.25;1.08;;;11.90;92.70;;;;;;6197429;23;20064;-83
2022/09/19 09:24:23;;;;;;;6.43;1.10;;;12.00;92.60;;;;;;6194907;23;20009;-84
2022/09/19 09:27:29;;;;;;;7.05;1.30;;;12.20;93.10;;;;;;6195467;23;20005;-83
2022/09/19 09:30:19;;;;;;;5.45;1.10;;;12.40;92.70;;;;;;6169543;23;20009;-83
2022/09/19 09:32:53;;;;;;;4.57;1.30;;;12.70;90.80;;;;;;6168936;23;20021;-82
2022/09/19 09:35:46;;;;;;;3.55;1.65;;;13.00;89.60;;;;;;6194596;23;20029;-84
2022/09/19 09:38:32;;;;;;;3.65;1.30;;;13.20;87.70;;;;;;6173345;23;20023;-84
2022/09/19 09:44:00;;;;;;;4.53;0.93;;;13.00;87.10;;;;;;6197218;23;20016;-84
2022/09/19 09:46:53;;;;;;;3.63;0.90;;;12.90;88.00;;;;;;6195656;23;20436;-83
2022/09/19 09:49:27;;;;;;;4.40;1.13;;;12.80;87.40;;;;;;6197526;23;20054;-83
2022/09/19 09:52:15;;;;;;;4.93;0.77;;;12.80;88.10;;;;;;6169612;23;20017;-84
2022/09/19 09:58:22;;;;;;;5.07;0.77;;;13.10;84.70;;;;;;6199361;23;20068;-82
2022/09/19 10:04:14;;;;;;;3.10;1.00;;;13.30;85.70;;;;;;6198342;23;20056;-85
2022/09/19 10:07:02;;;;;;;3.50;0.98;;;13.70;84.90;;;;;;6198735;23;20001;-83
2022/09/19 10:09:34;;;;;;;2.97;0.93;;;13.70;83.30;;;;;;6198108;23;20001;-83
2022/09/19 10:12:32;;;;;;;3.22;0.75;;;13.60;84.10;;;;;;6172107;23;20005;-83
2022/09/19 10:15:01;;;;;;;5.00;1.20;;;13.50;82.70;;;;;;6196320;23;20474;-83
2022/09/19 10:17:32;;;;;;;3.13;1.05;;;13.60;82.80;;;;;;6197184;23;20076;-83
2022/09/19 10:20:02;;;;;;;3.00;0.90;;;13.50;83.30;;;;;;6171332;23;20028;-82
2022/09/19 10:22:31;;;;;;;3.55;0.88;;;13.60;83.60;;;;;;6170768;23;20007;-84
2022/09/19 10:24:59;;;;;;;2.60;1.13;;;13.80;83.80;;;;;;6197124;23;20045;-82
2022/09/19 10:27:39;;;;;;;4.22;1.40;;;14.10;82.00;;;;;;6196410;23;20001;-83
2022/09/19 10:30:26;;;;;;;4.10;1.15;;;14.40;81.10;;;;;;6196463;23;20031;-84
2022/09/19 10:32:52;;;;;;;5.03;1.00;;;14.60;77.80;;;;;;6196595;23;20436;-84
2022/09/19 10:35:38;;;;;;;1.83;0.77;;;14.50;76.90;;;;;;6196792;23;20005;-83
2022/09/19 10:38:13;;;;;;;2.13;0.80;;;14.50;76.80;;;;;;6171139;23;20016;-84
2022/09/19 10:41:01;;;;;;;4.13;1.00;;;14.30;78.80;;;;;;6199209;23;19997;-83
2022/09/19 10:43:46;;;;;;;5.70;1.00;;;14.40;78.10;;;;;;6171196;23;20009;-82
2022/09/19 10:46:37;;;;;;;4.32;1.50;;;14.50;76.60;;;;;;6192001;23;20029;-80
2022/09/19 10:49:25;;;;;;;4.85;1.45;;;14.50;77.90;;;;;;6192146;23;20005;-79
2022/09/19 10:51:54;;;;;;;7.43;1.27;;;14.50;76.90;;;;;;6191295;23;20089;-79
2022/09/19 10:54:30;;;;;;;3.05;1.00;;;14.60;76.90;;;;;;6191480;23;20072;-80
2022/09/19 10:56:58;;;;;;;3.47;1.02;;;14.60;77.60;;;;;;6192763;23;20024;-78
2022/09/19 10:59:36;;;;;;;4.55;1.15;;;14.60;78.20;;;;;;6197411;23;20039;-79
2022/09/19 11:02:18;;;;;;;7.15;1.70;;;14.70;76.30;;;;;;6195195;23;20053;-79
2022/09/19 11:05:04;;;;;;;8.18;1.17;;;14.70;76.00;;;;;;6190922;23;20012;-79
2022/09/19 11:07:48;;;;;;;3.88;1.75;;;14.60;75.10;;;;;;6216642;23;20005;-78
2022/09/19 11:10:37;;;;;;;4.32;1.05;;;14.50;76.50;;;;;;6195681;23;20053;-79
2022/09/19 11:13:23;;;;;;;5.15;1.63;;;14.80;75.70;;;;;;6193629;23;20471;-78
2022/09/19 11:15:51;;;;;;;3.00;0.98;;;14.90;74.10;;;;;;6192453;23;20079;-78
2022/09/19 11:18:51;;;;;;;4.43;1.73;;;15.10;73.00;;;;;;6216284;23;20032;-78
2022/09/19 11:21:44;;;;;;;3.67;0.80;;;15.10;73.10;;;;;;6184423;23;20005;-79
2022/09/19 11:24:41;;;;;;;3.88;0.75;;;15.20;72.50;;;;;;6190299;23;20028;-79
2022/09/19 11:27:09;;;;;;;5.13;0.90;;;15.10;71.40;;;;;;6193528;23;20005;-78
2022/09/19 11:29:49;;;;;;;4.93;1.00;;;15.00;70.70;;;;;;6194616;23;20001;-78
2022/09/19 11:32:47;;;;;;;3.35;0.90;;;14.90;71.00;;;;;;6192800;23;20096;-79
2022/09/19 11:35:52;;;;;;;1.55;0.52;;;14.80;71.10;;;;;;6198530;23;20009;-79
2022/09/19 11:38:32;;;;;;;2.67;0.80;;;14.80;71.30;;;;;;6185415;23;20001;-78
2022/09/19 11:41:09;;;;;;;6.25;0.90;;;14.70;72.90;;;;;;6195308;23;20005;-78
2022/09/19 11:44:03;;;;;;;5.38;1.00;;;14.60;72.50;;;;;;6217735;23;20011;-78
2022/09/19 11:46:31;;;;;;;5.35;1.35;;;14.50;73.40;;;;;;6217387;23;20100;-79
2022/09/19 11:49:19;;;;;;;2.42;0.60;;;14.50;73.40;;;;;;6194111;23;20036;-79
2022/09/19 11:51:56;;;;;;;5.35;1.67;;;14.60;72.40;;;;;;6196079;23;20036;-78
2022/09/19 11:54:44;;;;;;;4.47;1.02;;;14.80;72.20;;;;;;6223635;23;19997;-79
2022/09/19 11:57:30;;;;;;;1.88;0.90;;;14.80;72.70;;;;;;6199532;23;20051;-78
2022/09/19 12:00:08;;;;;;;4.97;1.02;;;14.80;72.20;;;;;;6195501;23;20001;-78
2022/09/19 12:02:58;;;;;;;3.47;1.20;;;14.80;72.20;;;;;;6218664;23;20026;-77
2022/09/19 12:06:01;;;;;;;4.43;0.93;;;14.80;71.90;;;;;;6199306;23;20056;-78
2022/09/19 12:08:36;;;;;;;1.95;0.70;;;14.50;71.10;;;;;;6187848;23;19997;-79
2022/09/19 12:11:12;;;;;;;3.60;0.95;;;14.20;72.70;;;;;;6189487;23;20012;-78
2022/09/19 12:13:53;;;;;;;3.42;0.80;;;14.20;73.70;;;;;;6192984;23;20001;-79
2022/09/19 12:16:24;;;;;;;6.10;2.95;;;14.20;72.70;;;;;;6189373;23;20048;-78
2022/09/19 12:18:58;;;;;;;3.53;1.20;;;14.30;72.30;;;;;;6210046;23;20015;-78
2022/09/19 12:21:32;;;;;;;3.42;0.82;;;14.30;73.00;;;;;;6187270;23;20367;-78
2022/09/19 12:27:13;;;;;;;3.20;0.90;;;14.40;72.40;;;;;;6188342;23;20012;-78
2022/09/19 12:30:09;;;;;;;4.38;0.85;;;14.70;71.30;;;;;;6190655;23;20009;-78
2022/09/19 12:32:51;;;;;;;3.05;0.52;;;15.00;69.90;;;;;;6165220;23;20012;-78
2022/09/19 12:35:26;;;;;;;2.08;0.80;;;15.10;71.00;;;;;;6187816;23;20023;-79
2022/09/19 12:38:27;;;;;;;2.63;1.27;;;15.10;70.00;;;;;;6214199;23;19997;-79
2022/09/19 12:40:55;;;;;;;1.98;1.40;;;15.10;69.70;;;;;;6189006;23;20069;-79
2022/09/19 12:43:36;;;;;;;0.95;0.50;;;15.00;70.30;;;;;;6212605;23;20032;-78
2022/09/19 12:46:26;;;;;;;2.42;0.90;;;14.80;70.20;;;;;;6204167;23;20015;-79
2022/09/19 12:49:27;;;;;;;1.63;0.60;;;14.70;70.80;;;;;;6219069;23;20000;-78
2022/09/19 12:52:01;;;;;;;1.40;0.50;;;14.60;71.10;;;;;;6220389;23;20008;-78
2022/09/19 12:54:39;;;;;;;2.63;0.63;;;14.70;70.80;;;;;;6218524;23;19997;-79
2022/09/19 12:57:08;;;;;;;1.88;0.70;;;14.70;70.70;;;;;;6217926;23;20068;-77
2022/09/19 12:59:35;;;;;;;4.40;0.70;;;14.70;70.10;;;;;;6218424;23;20004;-78
2022/09/19 13:02:20;;;;;;;1.27;0.80;;;14.70;70.40;;;;;;6218612;23;20069;-78
2022/09/19 13:04:58;;;;;;;1.50;0.47;;;14.70;70.00;;;;;;6217876;23;20052;-77
2022/09/19 13:07:30;;;;;;;2.35;0.70;;;14.60;70.80;;;;;;6190496;23;20021;-78
2022/09/19 13:10:06;;;;;;;2.67;0.77;;;14.60;71.20;;;;;;6221117;23;20005;-78
2022/09/19 13:12:42;;;;;;;1.83;0.80;;;14.60;71.40;;;;;;6191106;23;20262;-77
2022/09/19 13:15:36;;;;;;;4.05;0.68;;;14.60;71.10;;;;;;6218957;23;20053;-78
2022/09/19 13:23:36;;;;;;;3.35;0.75;;;15.40;68.50;;;;;;6216385;23;20394;-77
2022/09/19 13:26:16;;;;;;;4.00;0.60;;;15.60;69.60;;;;;;6194002;23;20009;-78
2022/09/19 13:28:58;;;;;;;4.43;0.70;;;16.10;67.50;;;;;;6218659;23;20130;-79
2022/09/19 13:31:44;;;;;;;;;;;15.90;66.20;;;;;;6218780;23;20004;-79
2022/09/19 13:34:33;;;;;;;2.53;0.80;;;15.50;66.80;;;;;;6189630;23;19923;-80
2022/09/19 13:37:22;;;;;;;2.03;0.85;;;15.10;68.70;;;;;;6210418;23;20001;-78
2022/09/19 13:40:38;;;;;;;3.08;0.90;;;14.70;70.60;;;;;;6193538;23;20004;-78
2022/09/19 13:43:22;;;;;;;3.78;0.80;;;14.40;71.50;;;;;;6219905;23;20001;-81
2022/09/19 13:45:49;;;;;;;2.50;0.82;;;14.40;72.00;;;;;;6219423;23;20004;-79
2022/09/19 13:48:31;;;;;;;3.85;0.98;;;14.30;72.90;;;;;;6222648;23;20058;-78
2022/09/19 13:51:10;;;;;;;1.85;0.73;;;14.20;73.10;;;;;;6197030;23;20092;-77
2022/09/19 13:53:42;;;;;;;2.10;0.80;;;14.20;74.20;;;;;;6205781;23;20061;-78
2022/09/19 13:56:35;;;;;;;4.30;0.80;;;14.30;72.40;;;;;;6197280;23;20261;-79
2022/09/19 13:59:23;;;;;;;2.67;0.68;;;14.30;71.40;;;;;;6218620;23;20000;-79
2022/09/19 14:02:00;;;;;;;1.95;0.55;;;14.10;71.40;;;;;;6218143;23;20007;-79
2022/09/19 14:04:54;;;;;;;6.25;0.80;;;14.10;71.50;;;;;;6191200;23;20270;-78
2022/09/19 14:07:38;;;;;;;1.25;0.60;;;14.10;72.40;;;;;;6191861;23;20072;-79
2022/09/19 14:10:16;;;;;;;2.03;0.63;;;14.20;71.40;;;;;;6218044;23;20001;-80
2022/09/19 14:12:47;;;;;;;3.58;1.40;;;14.50;70.10;;;;;;6218225;23;20031;-80
2022/09/19 14:15:32;;;;;;;1.90;0.70;;;14.60;69.40;;;;;;6191485;23;20001;-80
2022/09/19 14:18:12;;;;;;;6.63;1.00;;;14.70;69.30;;;;;;6217843;23;20001;-79